Terminal Aerodrome Forecast
Issued by NWS

Home | Current Version | Previous Version | Text Only | Print | Product List | Glossary On
Versions: 1 2 3 4 5 6 7 8 9 10 11 12 13 14 15 16 17 18
575
FTUS46 KMTR 190553 AAA
TAFSTS
TAF AMD
KSTS 190553Z 1906/2006 VRB03KT P6SM BKN007
     FM191700 16006KT P6SM SKC
     FM200400 15005KT P6SM OVC003=

USA.gov is the U.S. government's official web portal to all federal, state and local government web resources and services.